Latest Weather Observations for Mallacoota

IDV60801

Issued at 8:31 pm EDT Monday 8 February 2016 (issued every 30 minutes, with the page automatically refreshed every 10 minutes)

About weather observations | Map of weather stations | Latest weather observations for VIC | Other Formats
Station Details ID: 084084 Name: MALLACOOTA Lat: -37.60 Lon: 149.73 Height: 22.0 m
Data from the previous 72 hours. | See also: Recent months at Mallacoota
Date/Time
EDT
Temp
°C
App
Temp
°C
Dew
Point
Rel
Hum
%
Delta-T
°C
Wind Press
QNH
hPa
Press
MSL
hPa
Rain
since 9 am
mm
Dir
 
Spd
km/h
Gust
km/h
Spd
kts
Gust
kts
08/08:30pm 19.3 19.5 14.6 74 2.7 SW 7 11 4 6 1020.3 - 0.0
08/08:00pm 20.1 20.3 14.7 71 3.1 SW 7 11 4 6 1020.1 - 0.0
08/07:30pm 21.4 21.3 15.0 67 3.8 SW 9 13 5 7 1019.7 - 0.0
08/07:00pm 22.0 20.4 14.9 64 4.2 SW 17 26 9 14 1019.4 - 0.0
08/06:30pm 22.5 21.1 15.6 65 4.1 SSW 17 24 9 13 1019.1 - 0.0
08/06:00pm 23.8 23.3 15.0 57 5.2 SSW 11 17 6 9 1019.0 1018.9 0.0
08/05:30pm 23.8 22.1 14.8 57 5.4 SW 17 26 9 14 1019.0 - 0.0
08/05:00pm 23.7 21.6 15.2 59 5.1 SSW 20 32 11 17 1019.1 - 0.0
08/04:30pm 24.3 22.7 15.0 56 5.6 SW 17 30 9 16 1019.2 - 0.0
08/04:00pm 23.8 21.9 16.8 65 4.3 SSW 22 33 12 18 1019.1 - 0.0
08/03:30pm 23.1 21.1 16.4 66 4.1 SSW 22 33 12 18 1019.1 - 0.0
08/03:00pm 21.9 19.2 16.6 72 3.2 S 26 41 14 22 1019.1 1019.0 0.0
08/02:30pm 22.9 20.8 17.1 70 3.6 SSW 24 39 13 21 1019.1 - 0.0
08/02:00pm 22.7 20.5 16.9 70 3.6 S 24 39 13 21 1019.0 - 0.0
08/01:30pm 22.7 20.1 16.9 70 3.6 S 26 41 14 22 1019.1 - 0.0
08/01:00pm 22.8 20.9 16.8 69 3.7 S 22 35 12 19 1019.3 - 0.0
08/12:30pm 23.9 22.7 17.6 68 3.9 SSW 20 33 11 18 1019.4 - 0.0
08/12:00pm 24.7 23.9 17.9 66 4.3 S 19 30 10 16 1019.5 1019.4 0.0
08/11:30am 25.0 24.2 17.2 62 4.8 SSW 17 24 9 13 1019.5 - 0.0
08/11:00am 25.0 24.4 16.7 60 5.1 SW 15 24 8 13 1019.4 - 0.0
08/10:30am 25.0 25.2 16.7 60 5.1 WSW 11 17 6 9 1019.4 - 0.0
08/10:00am 24.0 23.8 16.8 64 4.4 SW 13 19 7 10 1019.3 - 0.0
08/09:30am 22.2 23.2 16.9 72 3.2 ESE 7 11 4 6 1019.3 - 0.0
08/09:00am 21.5 22.4 16.7 74 2.9 SE 7 9 4 5 1019.2 1019.1 0.0
08/08:30am 20.8 22.1 17.6 82 2.0 SW 7 11 4 6 1019.2 - 0.0
08/08:00am 19.0 20.3 17.0 88 1.2 WNW 6 9 3 5 1019.0 - 0.0
08/07:30am 17.2 17.7 15.5 90 1.0 NW 7 11 4 6 1018.8 - 0.0
08/07:00am 16.3 16.5 14.8 91 0.9 WNW 7 11 4 6 1018.6 - 0.0
08/06:30am 16.1 15.8 14.5 90 0.9 WNW 9 11 5 6 1018.3 - 0.0
08/06:00am 16.2 16.3 14.4 89 1.0 WNW 7 9 4 5 1018.0 1017.9 0.0
08/05:30am 16.7 17.5 14.9 89 1.0 SSW 4 7 2 4 1017.8 - 0.0
08/05:00am 17.0 17.9 15.0 88 1.2 SSW 4 7 2 4 1017.7 - 0.0
08/04:30am 17.6 19.0 15.4 87 1.3 N 2 6 1 3 1017.5 - 0.0
08/04:00am 18.1 18.7 15.9 87 1.3 NW 7 11 4 6 1017.5 - 0.0
08/03:30am 18.4 18.8 16.2 87 1.3 NNW 9 11 5 6 1017.4 - 0.0
08/03:00am 18.5 18.8 16.1 86 1.4 NW 9 13 5 7 1017.3 1017.2 0.0
08/02:30am 18.6 19.0 16.4 87 1.3 NNW 9 13 5 7 1017.4 - 0.0
08/02:00am 18.5 19.2 16.1 86 1.4 NNW 7 9 4 5 1017.7 - 0.0
08/01:30am 18.7 19.4 16.1 85 1.5 N 7 11 4 6 1017.8 - 0.0
08/01:00am 19.0 19.4 16.2 84 1.7 N 9 13 5 7 1017.9 - 0.0
08/12:30am 19.2 19.9 16.2 83 1.8 NNW 7 13 4 7 1018.0 - 0.0
08/12:00am 19.1 19.4 16.0 82 1.8 NNW 9 13 5 7 1018.0 1017.9 0.0
 
Date/Time
EDT
Temp
°C
App
Temp
°C
Dew
Point
Rel
Hum
%
Delta-T
°C
Wind Press
QNH
hPa
Press
MSL
hPa
Rain
since 9 am
mm
Dir
 
Spd
km/h
Gust
km/h
Spd
kts
Gust
kts
07/11:30pm 19.1 19.3 15.8 81 2.0 NNW 9 13 5 7 1018.1 - 0.0
07/11:00pm 19.5 19.8 16.0 80 2.1 NNW 9 15 5 8 1018.0 - 0.0
07/10:30pm 19.8 20.1 16.1 79 2.2 NNW 9 13 5 7 1018.2 - 0.0
07/10:00pm 20.3 20.6 15.9 76 2.6 NNW 9 13 5 7 1018.2 - 0.0
07/09:30pm 20.8 20.8 16.2 75 2.8 N 11 15 6 8 1018.0 - 0.0
07/09:00pm 21.1 21.6 16.5 75 2.8 N 9 13 5 7 1017.6 1017.5 0.0
07/08:30pm 20.6 21.6 16.8 79 2.3 N 7 9 4 5 1017.2 - 0.0
07/08:00pm 21.9 24.0 17.1 74 2.9 NE 2 6 1 3 1016.9 - 0.0
07/07:30pm 22.9 24.3 17.8 73 3.2 ENE 7 11 4 6 1016.6 - 0.0
07/07:00pm 23.3 24.8 18.0 72 3.3 NNE 7 11 4 6 1016.2 - 0.0
07/06:30pm 24.1 25.9 18.3 70 3.7 NE 6 9 3 5 1015.9 - 0.0
07/06:00pm 24.0 25.4 17.7 68 3.9 ENE 7 13 4 7 1016.0 1015.9 0.0
07/05:30pm 24.2 25.4 17.4 65 4.2 ENE 7 11 4 6 1016.0 - 0.0
07/05:00pm 24.8 24.9 17.5 64 4.6 ENE 13 20 7 11 1015.9 - 0.0
07/04:30pm 23.7 23.6 17.9 70 3.6 E 15 20 8 11 1015.9 - 0.0
07/04:00pm 24.0 23.7 18.2 70 3.6 E 17 26 9 14 1016.0 - 0.0
07/03:30pm 23.7 22.8 17.7 69 3.7 ENE 19 26 10 14 1015.9 - 0.0
07/03:00pm 24.0 23.2 18.0 69 3.8 E 19 28 10 15 1016.0 1015.9 0.0
07/02:30pm 23.8 22.6 17.5 68 3.9 E 20 30 11 16 1016.0 - 0.0
07/02:00pm 24.2 23.2 17.9 68 3.9 E 20 28 11 15 1016.0 - 0.0
07/01:30pm 24.3 23.4 17.8 67 4.1 E 19 28 10 15 1016.1 - 0.0
07/01:00pm 24.7 24.2 17.7 65 4.4 E 17 22 9 12 1016.2 - 0.0
07/12:30pm 24.5 24.1 17.2 63 4.5 E 15 20 8 11 1016.4 - 0.0
07/12:00pm 24.6 24.1 16.8 62 4.8 E 15 19 8 10 1016.5 1016.4 0.0
07/11:30am 24.4 24.3 15.9 59 5.2 E 11 17 6 9 1016.8 - 0.0
07/11:00am 24.7 24.2 15.9 58 5.4 NE 13 19 7 10 1017.0 - 0.0
07/10:30am 24.1 22.5 15.1 57 5.4 NNE 17 22 9 12 1017.0 - 0.0
07/10:00am 23.2 21.6 15.0 60 4.9 NNE 17 22 9 12 1017.1 - 0.0
07/09:30am 22.2 21.0 15.1 64 4.2 N 15 22 8 12 1017.2 - 0.0
07/09:00am 21.2 19.1 14.8 67 3.8 NNE 19 26 10 14 1017.4 1017.3 0.0
07/08:30am 19.9 19.4 14.9 73 2.9 N 11 17 6 9 1017.5 - 0.0
07/08:00am 18.5 18.0 14.8 79 2.2 N 11 15 6 8 1017.4 - 0.0
07/07:30am 17.2 16.5 14.3 83 1.7 N 11 15 6 8 1017.2 - 0.0
07/07:00am 16.3 15.4 13.8 85 1.4 N 11 15 6 8 1017.0 - 0.0
07/06:30am 15.8 14.8 13.5 86 1.3 N 11 17 6 9 1016.9 - 0.0
07/06:00am 15.6 14.2 13.3 86 1.3 NNW 13 15 7 8 1016.7 1016.6 0.0
07/05:30am 14.9 13.7 12.8 87 1.2 NW 11 15 6 8 1016.6 - 0.0
07/05:00am 15.1 13.9 12.8 86 1.3 N 11 13 6 7 1016.4 - 0.0
07/04:30am 15.3 14.2 13.0 86 1.3 N 11 13 6 7 1016.5 - 0.0
07/04:00am 15.4 14.2 12.7 84 1.5 N 11 13 6 7 1016.7 - 0.0
07/03:30am 15.9 14.7 12.8 82 1.7 N 11 13 6 7 1016.8 - 0.0
07/03:00am 15.9 14.3 12.8 82 1.7 N 13 17 7 9 1016.9 1016.8 0.0
07/02:30am 16.5 15.1 13.4 82 1.7 N 13 15 7 8 1017.1 - 0.0
07/02:00am 16.5 15.5 13.4 82 1.7 N 11 15 6 8 1017.3 - 0.0
07/01:30am 16.6 15.6 13.3 81 1.8 N 11 17 6 9 1017.7 - 0.0
07/01:00am 17.4 16.1 13.7 79 2.1 N 13 17 7 9 1018.1 - 0.0
07/12:30am 16.9 15.9 13.4 80 2.0 N 11 15 6 8 1018.3 - 0.0
07/12:00am 17.3 16.5 14.0 81 1.9 N 11 13 6 7 1018.4 1018.3 0.0
 
Date/Time
EDT
Temp
°C
App
Temp
°C
Dew
Point
Rel
Hum
%
Delta-T
°C
Wind Press
QNH
hPa
Press
MSL
hPa
Rain
since 9 am
mm
Dir
 
Spd
km/h
Gust
km/h
Spd
kts
Gust
kts
06/11:30pm 17.4 16.5 13.7 79 2.1 N 11 15 6 8 1018.5 - 0.0
06/11:00pm 18.1 16.9 14.0 77 2.3 N 13 17 7 9 1018.6 - 0.0
06/10:30pm 17.9 16.8 13.2 74 2.6 NNE 11 15 6 8 1018.7 - 0.0
06/10:00pm 18.5 17.1 13.4 72 2.9 NNE 13 17 7 9 1018.8 - 0.0
06/09:30pm 19.0 17.4 13.8 72 3.0 NNE 15 19 8 10 1018.6 - 0.0
06/09:00pm 19.4 18.2 14.0 71 3.1 NNE 13 19 7 10 1018.2 1018.1 0.0
06/08:30pm 20.0 18.2 14.4 70 3.3 NNE 17 20 9 11 1018.0 - 0.0
06/08:00pm 20.5 19.1 14.6 69 3.4 NNE 15 24 8 13 1017.8 - 0.0
06/07:30pm 20.9 19.4 14.3 66 3.8 NE 15 32 8 17 1017.6 - 0.0
06/07:00pm 21.4 19.7 14.6 65 4.0 NE 17 30 9 16 1017.4 - 0.0
06/06:30pm 21.6 19.4 14.5 64 4.2 NE 19 35 10 19 1017.3 - 0.0
06/06:00pm 21.9 18.9 14.8 64 4.2 ENE 24 35 13 19 1017.3 1017.2 0.0
06/05:30pm 21.9 18.6 15.0 65 4.1 ENE 26 35 14 19 1017.4 - 0.0
06/05:00pm 21.9 18.0 15.5 67 3.8 E 30 41 16 22 1017.4 - 0.0
06/04:30pm 22.3 18.8 15.6 66 4.0 ENE 28 39 15 21 1017.6 - 0.0
06/04:00pm 22.3 18.6 15.9 67 3.9 E 30 39 16 21 1017.7 - 0.0
06/03:30pm 22.7 19.8 16.0 66 4.0 E 26 35 14 19 1017.8 - 0.0
06/03:00pm 22.8 19.9 16.1 66 4.0 E 26 37 14 20 1018.1 1018.0 0.0
06/02:30pm 22.9 20.4 16.2 66 4.1 E 24 33 13 18 1018.4 - 0.0
06/02:00pm 23.1 21.2 15.7 63 4.5 E 20 32 11 17 1018.8 - 0.0
06/01:30pm 22.2 20.3 15.3 65 4.1 E 19 24 10 13 1019.0 - 0.0
06/01:00pm 22.5 21.1 15.6 65 4.1 E 17 22 9 12 1019.2 - 0.0
06/12:30pm 21.4 21.5 16.6 74 2.9 E 11 17 6 9 1019.6 - 0.0
06/12:00pm 21.5 22.3 17.3 77 2.6 ENE 9 11 5 6 1019.9 1019.8 0.0
06/11:30am 20.7 21.3 16.7 78 2.4 ENE 9 11 5 6 1020.1 - 0.0
06/11:00am 20.8 21.7 17.6 82 2.0 E 9 13 5 7 1020.2 - 0.0
06/10:30am 21.4 23.3 19.0 86 1.5 NNE 7 11 4 6 1020.3 - 0.0
06/10:00am 20.0 21.8 18.3 90 1.1 N 6 9 3 5 1020.4 - 0.0
06/09:30am 19.0 20.0 17.7 92 0.8 NNW 9 11 5 6 1020.4 - 0.0
06/09:00am 18.3 19.4 17.1 93 0.7 NW 7 11 4 6 1020.3 1020.2 0.8
06/08:30am 17.6 18.1 16.5 93 0.7 NW 9 11 5 6 1020.4 - 0.8
06/08:00am 17.0 17.6 15.9 93 0.6 WSW 7 13 4 7 1020.2 - 0.8
06/07:30am 16.5 16.6 15.4 93 0.6 NW 9 11 5 6 1020.1 - 0.8
06/07:00am 16.3 17.2 15.0 92 0.8 NNW 4 9 2 5 1020.0 - 0.8
06/06:30am 16.1 16.5 14.8 92 0.7 NW 6 9 3 5 1019.6 - 0.2
06/06:00am 16.0 15.8 14.7 92 0.7 WNW 9 11 5 6 1019.4 1019.3 0.2
06/05:30am 15.9 15.7 14.6 92 0.7 WNW 9 11 5 6 1019.4 - 0.2
06/05:00am 15.8 15.2 14.5 92 0.7 NW 11 15 6 8 1019.5 - 0.2
06/04:30am 16.0 15.7 14.5 91 0.9 WNW 9 13 5 7 1019.4 - 0.2
06/04:00am 16.1 15.9 14.6 91 0.9 WNW 9 11 5 6 1019.5 - 0.2
06/03:30am 16.1 15.5 14.5 90 0.9 NW 11 13 6 7 1019.8 - 0.2
06/03:00am 16.3 15.7 14.5 89 1.0 NNW 11 13 6 7 1020.1 1020.0 0.2
06/02:30am 16.9 17.1 14.7 87 1.3 NW 7 11 4 6 1020.3 - 0.0
06/02:00am 17.9 17.9 15.2 84 1.6 NE 9 13 5 7 1020.8 - 0.0
06/01:30am 16.5 16.3 13.6 83 1.6 NW 7 9 4 5 1020.9 - 0.0
06/01:00am 16.6 16.5 13.3 81 1.8 W 6 7 3 4 1021.1 - 0.0
06/12:30am 16.7 17.1 12.5 76 2.3 ESE 2 7 1 4 1021.2 - 0.0
06/12:00am 19.2 18.8 14.0 72 3.0 ESE 9 13 5 7 1021.5 1021.4 0.0
 
Date/Time
EDT
Temp
°C
App
Temp
°C
Dew
Point
Rel
Hum
%
Delta-T
°C
Wind Press
QNH
hPa
Press
MSL
hPa
Rain
since 9 am
mm
Dir
 
Spd
km/h
Gust
km/h
Spd
kts
Gust
kts
05/11:30pm 19.4 18.7 14.4 73 2.9 ESE 11 15 6 8 1021.7 - 0.0
05/11:00pm 19.5 19.2 14.3 72 3.0 E 9 13 5 7 1021.8 - 0.0
05/10:30pm 19.6 18.9 14.4 72 3.0 ESE 11 17 6 9 1021.9 - 0.0
05/10:00pm 19.6 18.4 14.0 70 3.2 ESE 13 17 7 9 1022.1 - 0.0
05/09:30pm 19.7 18.5 14.1 70 3.2 ESE 13 19 7 10 1022.0 - 0.0
05/09:00pm 19.9 18.7 14.0 69 3.4 SE 13 19 7 10 1021.6 1021.5 0.0

Other Formats:

Comma delimited format used in spreadsheet applications
http://www.bom.gov.au/fwo/IDV60801/IDV60801.94935.axf

JavaScript Object Notation format (JSON) in row-major order
http://www.bom.gov.au/fwo/IDV60801/IDV60801.94935.json